createdAt,value
2023-04-16T00:00:42.128Z,100049.88
2023-04-16T00:02:43.619Z,100055.94
2023-04-16T00:04:45.480Z,100047.47
2023-04-16T00:06:46.937Z,100053.34
2023-04-16T00:08:48.342Z,100055.22
2023-04-16T00:10:50.705Z,100054.78
2023-04-16T00:12:52.099Z,100047.91
2023-04-16T00:14:53.474Z,100048.91
2023-04-16T00:16:54.944Z,100050.34
2023-04-16T00:18:56.361Z,100043.88
2023-04-16T00:20:57.914Z,100047.31
2023-04-16T00:22:59.290Z,100047.03
2023-04-16T00:25:00.680Z,100050.34
2023-04-16T00:27:02.264Z,100050.72
2023-04-16T00:29:03.718Z,100047.06
2023-04-16T00:31:05.386Z,100054.56
2023-04-16T00:33:06.980Z,100051.94
2023-04-16T00:35:08.506Z,100048.69
2023-04-16T00:37:09.909Z,100056.03
2023-04-16T00:39:11.438Z,100046.28
2023-04-16T00:41:12.898Z,100048.75
2023-04-16T00:43:22.036Z,100059.09
2023-04-16T00:45:23.487Z,100054.59
2023-04-16T00:47:25.397Z,100053.19
2023-04-16T00:49:27.396Z,100054.41
2023-04-16T00:51:28.880Z,100058.66
2023-04-16T00:53:31.217Z,100052.19
2023-04-16T00:55:34.954Z,100058.66
2023-04-16T00:57:36.325Z,100054.81
2023-04-16T00:59:37.818Z,100060.06
2023-04-16T01:01:39.458Z,100052.38
2023-04-16T01:03:48.299Z,100060.47
2023-04-16T01:05:53.458Z,100057.84
2023-04-16T01:07:59.116Z,100062.06
2023-04-16T01:10:00.583Z,100057.44
2023-04-16T01:12:02.090Z,100061.50
2023-04-16T01:14:04.104Z,100060.50
2023-04-16T01:16:10.385Z,100062.97
2023-04-16T01:18:20.025Z,100068.38
2023-04-16T01:20:21.550Z,100064.91
2023-04-16T01:22:22.954Z,100067.97
2023-04-16T01:24:24.350Z,100067.97
2023-04-16T01:26:25.829Z,100073.41
2023-04-16T01:28:27.302Z,100068.38
2023-04-16T01:30:28.746Z,100064.72
2023-04-16T01:32:32.289Z,100066.31
2023-04-16T01:34:33.768Z,100063.94
2023-04-16T01:36:35.208Z,100068.97
2023-04-16T01:38:36.598Z,100066.75
2023-04-16T01:40:38.627Z,100066.75
2023-04-16T01:42:40.066Z,100066.13
2023-04-16T01:44:41.449Z,100068.56
2023-04-16T01:46:43.682Z,100080.06
2023-04-16T01:48:45.574Z,100072.16
2023-04-16T01:50:46.984Z,100076.81
2023-04-16T01:52:48.402Z,100077.00
2023-04-16T01:54:49.782Z,100069.75
2023-04-16T01:56:51.149Z,100078.69
2023-04-16T01:58:53.144Z,100074.78
2023-04-16T02:00:54.607Z,100073.63
2023-04-16T02:02:56.333Z,100081.28
2023-04-16T02:04:57.846Z,100085.34
2023-04-16T02:06:59.291Z,100077.44
2023-04-16T02:09:00.664Z,100076.88
2023-04-16T02:11:02.198Z,100079.50
2023-04-16T02:13:03.637Z,100080.13
2023-04-16T02:15:05.450Z,100086.69
2023-04-16T02:17:06.871Z,100077.53
2023-04-16T02:19:08.584Z,100085.91
2023-04-16T02:21:10.301Z,100085.31
2023-04-16T02:23:11.925Z,100079.66
2023-04-16T02:25:14.254Z,100087.97
2023-04-16T02:27:16.005Z,100084.41
2023-04-16T02:29:17.464Z,100090.16
2023-04-16T02:31:19.587Z,100082.47
2023-04-16T02:33:21.319Z,100091.00
2023-04-16T02:35:22.762Z,100085.56
2023-04-16T02:37:25.815Z,100078.25
2023-04-16T02:39:27.284Z,100080.91
2023-04-16T02:41:28.738Z,100084.97
2023-04-16T02:43:30.295Z,100085.72
2023-04-16T02:45:31.726Z,100081.09
2023-04-16T02:47:33.200Z,100083.34
2023-04-16T02:49:35.787Z,100090.41
2023-04-16T02:51:37.184Z,100084.91
2023-04-16T02:53:38.596Z,100087.78
2023-04-16T02:55:40.075Z,100086.78
2023-04-16T02:57:42.354Z,100084.16
2023-04-16T02:59:43.831Z,100085.97
2023-04-16T03:01:45.531Z,100083.53
2023-04-16T03:03:47.019Z,100087.41
2023-04-16T03:05:48.581Z,100078.69
2023-04-16T03:07:50.639Z,100084.91
2023-04-16T03:09:52.117Z,100084.56
2023-04-16T03:11:53.512Z,100090.00
2023-04-16T03:13:54.980Z,100083.75
2023-04-16T03:15:56.382Z,100083.75
2023-04-16T03:17:58.024Z,100083.50
2023-04-16T03:19:59.506Z,100086.38
2023-04-16T03:22:01.046Z,100087.41
2023-04-16T03:24:02.710Z,100096.28
2023-04-16T03:26:04.284Z,100085.59
2023-04-16T03:28:05.899Z,100080.94
2023-04-16T03:30:08.690Z,100091.66
2023-04-16T03:32:10.081Z,100086.16
2023-04-16T03:34:11.502Z,100085.56
2023-04-16T03:36:12.866Z,100089.22
2023-04-16T03:38:14.293Z,100093.66
2023-04-16T03:40:15.694Z,100098.31
2023-04-16T03:42:17.236Z,100099.97
2023-04-16T03:44:18.754Z,100101.22
2023-04-16T03:46:20.373Z,100100.16
2023-04-16T03:48:21.917Z,100107.91
2023-04-16T03:50:23.296Z,100103.81
2023-04-16T03:52:24.853Z,100107.25
2023-04-16T03:54:26.739Z,100105.41
2023-04-16T03:56:28.154Z,100108.44
2023-04-16T03:58:29.580Z,100104.44
2023-04-16T04:00:31.478Z,100108.66
2023-04-16T04:02:33.074Z,100104.19
2023-04-16T04:04:34.843Z,100111.94
2023-04-16T04:06:36.325Z,100105.28
2023-04-16T04:08:38.804Z,100105.50
2023-04-16T04:10:40.237Z,100103.84
2023-04-16T04:12:41.629Z,100107.91
2023-04-16T04:14:43.180Z,100107.50
2023-04-16T04:16:44.645Z,100097.78
2023-04-16T04:18:46.092Z,100106.28
2023-04-16T04:20:47.498Z,100101.38
2023-04-16T04:22:50.429Z,100107.69
2023-04-16T04:24:51.819Z,100109.34
2023-04-16T04:26:53.219Z,100111.31
2023-04-16T04:28:54.637Z,100122.72
2023-04-16T04:31:00.151Z,100117.88
2023-04-16T04:33:01.883Z,100125.56
2023-04-16T04:35:03.836Z,100125.53
2023-04-16T04:37:05.656Z,100126.75
2023-04-16T04:39:07.462Z,100123.69
2023-04-16T04:41:09.065Z,100138.50
2023-04-16T04:43:10.449Z,100127.19
2023-04-16T04:45:12.068Z,100138.28
2023-04-16T04:47:14.803Z,100129.78
2023-04-16T04:49:16.242Z,100128.56
2023-04-16T04:51:17.636Z,100133.66
2023-04-16T04:53:19.174Z,100137.94
2023-04-16T04:55:20.791Z,100137.09
2023-04-16T04:57:22.206Z,100142.41
2023-04-16T04:59:24.408Z,100133.22
2023-04-16T05:01:26.005Z,100137.53
2023-04-16T05:03:27.503Z,100140.97
2023-04-16T05:05:29.101Z,100143.41
2023-04-16T05:07:30.795Z,100133.09
2023-04-16T05:09:33.193Z,100146.59
2023-04-16T05:11:34.583Z,100147.03
2023-04-16T05:13:36.069Z,100149.06
2023-04-16T05:15:37.803Z,100155.00
2023-04-16T05:17:39.270Z,100152.53
2023-04-16T05:19:40.751Z,100156.78
2023-04-16T05:21:42.257Z,100164.47
2023-04-16T05:23:43.686Z,100156.19
2023-04-16T05:25:45.215Z,100155.56
2023-04-16T05:27:46.795Z,100157.38
2023-04-16T05:29:48.166Z,100159.84
2023-04-16T05:31:49.904Z,100160.44
2023-04-16T05:33:51.308Z,100162.50
2023-04-16T05:35:52.716Z,100163.47
2023-04-16T05:37:54.103Z,100164.91
2023-04-16T05:39:55.543Z,100164.91
2023-04-16T05:41:56.990Z,100160.28
2023-04-16T05:43:58.651Z,100171.78
2023-04-16T05:46:00.336Z,100176.47
2023-04-16T05:48:01.834Z,100182.56
2023-04-16T05:50:03.362Z,100180.09
2023-04-16T05:52:05.639Z,100176.47
2023-04-16T05:54:07.082Z,100177.91
2023-04-16T05:56:08.625Z,100184.59
2023-04-16T05:58:10.231Z,100190.25
2023-04-16T06:00:11.867Z,100185.00
2023-04-16T06:02:13.508Z,100194.56
2023-04-16T06:04:15.184Z,100193.72
2023-04-16T06:06:16.702Z,100194.56
2023-04-16T06:08:18.203Z,100206.09
2023-04-16T06:10:19.661Z,100209.25
2023-04-16T06:12:21.025Z,100203.03
2023-04-16T06:14:22.485Z,100201.84
2023-04-16T06:16:24.003Z,100199.81
2023-04-16T06:18:25.593Z,100205.34
2023-04-16T06:20:27.014Z,100204.66
2023-04-16T06:22:28.705Z,100199.41
2023-04-16T06:24:30.098Z,100206.50
2023-04-16T06:26:31.520Z,100203.72
2023-04-16T06:28:32.926Z,100207.19
2023-04-16T06:30:34.437Z,100202.72
2023-04-16T06:32:35.908Z,100203.72
2023-04-16T06:34:38.735Z,100209.00
2023-04-16T06:36:40.284Z,100204.78
2023-04-16T06:38:41.729Z,100210.81
2023-04-16T06:40:43.142Z,100211.63
2023-04-16T06:42:45.649Z,100215.88
2023-04-16T06:44:47.727Z,100224.56
2023-04-16T06:46:50.054Z,100222.19
2023-04-16T06:48:51.584Z,100222.63
2023-04-16T06:50:53.002Z,100225.69
2023-04-16T06:52:55.274Z,100225.13
2023-04-16T06:54:56.689Z,100224.13
2023-04-16T06:56:58.092Z,100236.28
2023-04-16T06:59:00.889Z,100228.31
2023-04-16T07:01:02.699Z,100231.81
2023-04-16T07:03:04.258Z,100238.03
2023-04-16T07:05:06.192Z,100238.56
2023-04-16T07:07:08.187Z,100244.06
2023-04-16T07:09:09.758Z,100242.06
2023-04-16T07:11:11.764Z,100249.16
2023-04-16T07:13:13.401Z,100247.13
2023-04-16T07:15:14.799Z,100249.56
2023-04-16T07:17:16.252Z,100250.13
2023-04-16T07:19:17.661Z,100248.53
2023-04-16T07:21:19.281Z,100247.53
2023-04-16T07:23:20.714Z,100249.81
2023-04-16T07:25:22.139Z,100247.53
2023-04-16T07:27:23.728Z,100251.84
2023-04-16T07:29:25.164Z,100253.72
2023-04-16T07:31:27.237Z,100256.53
2023-04-16T07:33:28.621Z,100250.69
2023-04-16T07:35:31.380Z,100263.84
2023-04-16T07:37:32.863Z,100262.66
2023-04-16T07:39:34.291Z,100260.66
2023-04-16T07:41:35.808Z,100264.53
2023-04-16T07:43:37.345Z,100269.19
2023-04-16T07:45:39.598Z,100265.75
2023-04-16T07:47:41.912Z,100274.09
2023-04-16T07:49:43.347Z,100267.78
2023-04-16T07:51:45.136Z,100273.88
2023-04-16T07:53:46.555Z,100271.78
2023-04-16T07:55:48.058Z,100275.22
2023-04-16T07:57:49.511Z,100269.19
2023-04-16T07:59:50.922Z,100276.75
2023-04-16T08:01:53.999Z,100289.94
2023-04-16T08:03:55.753Z,100283.84
2023-04-16T08:05:58.068Z,100288.91
2023-04-16T08:07:59.487Z,100289.50
2023-04-16T08:10:00.853Z,100295.56
2023-04-16T08:12:03.601Z,100292.72
2023-04-16T08:14:05.151Z,100296.78
2023-04-16T08:16:06.965Z,100290.91
2023-04-16T08:18:12.835Z,100301.84
2023-04-16T08:20:17.586Z,100303.28
2023-04-16T08:22:20.801Z,100304.75
2023-04-16T08:24:22.196Z,100312.88
2023-04-16T08:26:23.661Z,100310.63
2023-04-16T08:28:25.093Z,100311.38
2023-04-16T08:30:26.608Z,100315.22
2023-04-16T08:32:28.224Z,100323.38
2023-04-16T08:34:29.628Z,100317.97
2023-04-16T08:36:31.294Z,100320.22
2023-04-16T08:38:32.713Z,100321.03
2023-04-16T08:40:38.670Z,100329.75
2023-04-16T08:42:49.025Z,100325.91
2023-04-16T08:44:58.741Z,100325.97
2023-04-16T08:47:01.173Z,100322.50
2023-04-16T08:49:05.793Z,100326.56
2023-04-16T08:51:10.584Z,100329.22
2023-04-16T08:53:19.107Z,100330.66
2023-04-16T08:55:30.785Z,100334.72
2023-04-16T08:57:47.047Z,100327.81
2023-04-16T08:59:48.742Z,100334.56
2023-04-16T09:01:52.316Z,100328.06
2023-04-16T09:03:54.144Z,100336.00
2023-04-16T09:05:57.922Z,100342.88
2023-04-16T09:07:59.359Z,100337.78
2023-04-16T09:10:01.586Z,100339.22
2023-04-16T09:12:03.590Z,100340.00
2023-04-16T09:14:11.081Z,100342.44
2023-04-16T09:16:18.420Z,100336.97
2023-04-16T09:18:21.191Z,100347.56
2023-04-16T09:20:22.684Z,100341.88
2023-04-16T09:22:24.150Z,100347.16
2023-04-16T09:24:26.085Z,100348.16
2023-04-16T09:26:27.800Z,100351.84
2023-04-16T09:28:39.138Z,100354.06
2023-04-16T09:30:41.007Z,100363.59
2023-04-16T09:32:42.428Z,100368.28
2023-04-16T09:34:58.280Z,100363.00
2023-04-16T09:37:18.398Z,100373.59
2023-04-16T09:39:20.251Z,100370.94
2023-04-16T09:41:27.453Z,100374.00
2023-04-16T09:43:28.934Z,100371.34
2023-04-16T09:45:47.664Z,100373.94
2023-04-16T09:47:49.083Z,100380.25
2023-04-16T09:49:50.765Z,100368.03
2023-04-16T09:51:56.100Z,100372.03
2023-04-16T09:53:57.518Z,100374.19
2023-04-16T09:56:03.600Z,100377.19
2023-04-16T09:58:05.035Z,100381.72
2023-04-16T10:00:11.743Z,100382.44
2023-04-16T10:02:15.360Z,100383.25
2023-04-16T10:04:17.848Z,100383.03
2023-04-16T10:06:20.730Z,100393.09
2023-04-16T10:08:23.993Z,100391.81
2023-04-16T10:10:25.841Z,100385.72
2023-04-16T10:12:28.738Z,100385.41
2023-04-16T10:14:30.304Z,100398.31
2023-04-16T10:16:32.954Z,100402.19
2023-04-16T10:18:41.929Z,100395.16
2023-04-16T10:20:44.362Z,100395.16
2023-04-16T10:22:46.167Z,100397.03
2023-04-16T10:24:48.688Z,100381.88
2023-04-16T10:26:52.360Z,100387.72
2023-04-16T10:28:55.101Z,100390.31
2023-04-16T10:30:58.640Z,100393.34
2023-04-16T10:33:02.256Z,100393.28
2023-04-16T10:35:04.758Z,100397.91
2023-04-16T10:37:06.434Z,100399.00
2023-04-16T10:39:14.766Z,100393.41
2023-04-16T10:41:21.122Z,100396.06
2023-04-16T10:43:25.317Z,100389.28
2023-04-16T10:45:32.116Z,100385.34
2023-04-16T10:47:39.704Z,100390.63
2023-04-16T10:49:42.357Z,100392.66
2023-04-16T10:51:53.137Z,100388.94
2023-04-16T10:53:56.273Z,100387.34
2023-04-16T10:56:04.517Z,100384.66
2023-04-16T10:58:29.853Z,100388.16
2023-04-16T11:00:31.263Z,100388.94
2023-04-16T11:02:32.997Z,100386.44
2023-04-16T11:04:37.401Z,100386.25
2023-04-16T11:06:38.896Z,100386.56
2023-04-16T11:08:53.373Z,100382.56
2023-04-16T11:10:58.520Z,100392.88
2023-04-16T11:13:00.254Z,100389.41
2023-04-16T11:15:07.428Z,100387.44
2023-04-16T11:17:09.943Z,100389.19
2023-04-16T11:19:16.586Z,100396.72
2023-04-16T11:21:18.271Z,100404.88
2023-04-16T11:23:19.706Z,100387.72
2023-04-16T11:25:22.780Z,100388.13
2023-04-16T11:27:24.613Z,100388.09
2023-04-16T11:29:26.051Z,100382.25
2023-04-16T11:31:27.590Z,100385.88
2023-04-16T11:33:31.561Z,100384.94
2023-04-16T11:35:33.355Z,100384.16
2023-04-16T11:37:36.426Z,100389.25
2023-04-16T11:39:53.049Z,100389.38
2023-04-16T11:41:55.452Z,100393.53
2023-04-16T11:43:57.389Z,100387.13
2023-04-16T11:46:01.637Z,100386.66
2023-04-16T11:48:04.204Z,100392.91
2023-04-16T11:50:18.612Z,100390.97
2023-04-16T11:52:33.782Z,100395.53
2023-04-16T11:54:36.555Z,100396.16
2023-04-16T11:56:38.030Z,100383.50
2023-04-16T11:58:43.058Z,100394.22
2023-04-16T12:00:45.189Z,100395.22
2023-04-16T12:02:52.072Z,100394.47
2023-04-16T12:04:53.956Z,100396.44
2023-04-16T12:07:12.265Z,100392.75
2023-04-16T12:09:27.149Z,100398.66
2023-04-16T12:11:41.258Z,100408.41
2023-04-16T12:13:42.666Z,100404.31
2023-04-16T12:15:55.948Z,100406.69
2023-04-16T12:18:08.033Z,100402.72
2023-04-16T12:20:11.648Z,100399.16
2023-04-16T12:22:13.169Z,100404.47
2023-04-16T12:24:16.922Z,100410.06
2023-04-16T12:26:18.379Z,100415.22
2023-04-16T12:28:33.938Z,100412.00
2023-04-16T12:30:50.578Z,100400.72
2023-04-16T12:33:13.037Z,100405.16
2023-04-16T12:35:29.821Z,100404.13
2023-04-16T12:37:31.492Z,100399.41
2023-04-16T12:39:32.912Z,100407.06
2023-04-16T12:41:37.490Z,100404.56
2023-04-16T12:43:38.955Z,100406.75
2023-04-16T12:45:40.705Z,100404.34
2023-04-16T12:47:42.142Z,100404.69
2023-04-16T12:49:44.696Z,100410.63
2023-04-16T12:51:46.823Z,100406.63
2023-04-16T12:53:48.610Z,100406.88
2023-04-16T12:55:50.487Z,100408.69
2023-04-16T12:57:55.596Z,100410.22
2023-04-16T12:59:58.308Z,100409.22
2023-04-16T13:02:02.260Z,100405.97
2023-04-16T13:04:04.109Z,100403.16
2023-04-16T13:06:05.793Z,100402.63
2023-04-16T13:08:07.245Z,100407.94
2023-04-16T13:10:09.603Z,100402.53
2023-04-16T13:12:11.405Z,100411.69
2023-04-16T13:14:12.781Z,100404.41
2023-04-16T13:16:14.266Z,100417.97
2023-04-16T13:18:15.853Z,100408.25
2023-04-16T13:20:17.550Z,100408.38
2023-04-16T13:22:19.041Z,100410.34
2023-04-16T13:24:20.596Z,100413.56
2023-04-16T13:26:22.074Z,100406.84
2023-04-16T13:28:23.496Z,100415.13
2023-04-16T13:30:25.570Z,100405.66
2023-04-16T13:32:27.117Z,100409.44
2023-04-16T13:34:28.573Z,100404.03
2023-04-16T13:36:32.027Z,100400.13
2023-04-16T13:38:33.559Z,100399.41
2023-04-16T13:40:34.940Z,100400.22
2023-04-16T13:42:36.342Z,100397.31
2023-04-16T13:44:37.739Z,100401.72
2023-04-16T13:46:39.216Z,100404.00
2023-04-16T13:48:40.804Z,100394.56
2023-04-16T13:50:42.321Z,100389.34
2023-04-16T13:52:43.772Z,100399.22
2023-04-16T13:54:45.216Z,100397.84
2023-04-16T13:56:46.690Z,100396.41
2023-04-16T13:58:48.574Z,100401.06
2023-04-16T14:00:50.178Z,100395.41
2023-04-16T14:02:52.553Z,100391.34
2023-04-16T14:04:54.179Z,100388.22
2023-04-16T14:06:56.073Z,100399.34
2023-04-16T14:08:57.678Z,100398.78
2023-04-16T14:10:59.192Z,100397.63
2023-04-16T14:13:00.621Z,100396.94
2023-04-16T14:15:04.303Z,100398.94
2023-04-16T14:17:05.707Z,100400.94
2023-04-16T14:19:07.113Z,100406.84
2023-04-16T14:21:09.181Z,100401.19
2023-04-16T14:23:12.374Z,100400.28
2023-04-16T14:25:13.815Z,100406.16
2023-04-16T14:27:15.354Z,100405.78
2023-04-16T14:29:16.855Z,100407.63
2023-04-16T14:31:19.831Z,100412.47
2023-04-16T14:33:21.274Z,100405.88
2023-04-16T14:35:23.232Z,100410.03
2023-04-16T14:37:24.796Z,100405.00
2023-04-16T14:39:27.068Z,100407.06
2023-04-16T14:41:28.526Z,100402.78
2023-04-16T14:43:29.984Z,100409.50
2023-04-16T14:45:32.434Z,100398.97
2023-04-16T14:47:34.909Z,100394.97
2023-04-16T14:49:36.360Z,100405.44
2023-04-16T14:51:37.814Z,100403.38
2023-04-16T14:53:39.303Z,100408.38
2023-04-16T14:55:40.741Z,100399.22
2023-04-16T14:57:42.263Z,100400.91
2023-04-16T14:59:43.792Z,100399.34
2023-04-16T15:01:46.109Z,100408.50
2023-04-16T15:03:47.778Z,100405.72
2023-04-16T15:05:55.356Z,100410.16
2023-04-16T15:07:57.160Z,100412.38
2023-04-16T15:09:58.951Z,100412.41
2023-04-16T15:12:00.693Z,100405.97
2023-04-16T15:14:02.094Z,100406.50
2023-04-16T15:16:06.642Z,100401.25
2023-04-16T15:18:08.533Z,100406.78
2023-04-16T15:20:10.516Z,100411.97
2023-04-16T15:22:12.546Z,100410.41
2023-04-16T15:24:13.957Z,100416.38
2023-04-16T15:26:15.439Z,100401.25
2023-04-16T15:28:16.923Z,100414.19
2023-04-16T15:30:18.559Z,100413.25
2023-04-16T15:32:20.038Z,100408.63
2023-04-16T15:34:21.457Z,100412.03
2023-04-16T15:36:23.103Z,100409.34
2023-04-16T15:38:24.555Z,100410.31
2023-04-16T15:40:25.996Z,100412.66
2023-04-16T15:42:27.448Z,100405.91
2023-04-16T15:44:30.225Z,100407.91
2023-04-16T15:46:31.926Z,100413.00
2023-04-16T15:48:33.385Z,100409.31
2023-04-16T15:50:35.143Z,100413.22
2023-04-16T15:52:39.359Z,100411.06
2023-04-16T15:54:40.973Z,100406.13
2023-04-16T15:56:42.460Z,100403.19
2023-04-16T15:58:43.932Z,100415.25
2023-04-16T16:00:47.522Z,100406.69
2023-04-16T16:02:49.008Z,100413.19
2023-04-16T16:04:50.727Z,100409.41
2023-04-16T16:06:53.034Z,100410.38
2023-04-16T16:08:54.724Z,100405.81
2023-04-16T16:10:56.393Z,100413.50
2023-04-16T16:12:58.089Z,100403.56
2023-04-16T16:14:59.651Z,100409.72
2023-04-16T16:17:01.213Z,100412.16
2023-04-16T16:19:02.693Z,100411.56
2023-04-16T16:21:04.324Z,100416.50
2023-04-16T16:23:05.822Z,100414.19
2023-04-16T16:25:07.588Z,100413.88
2023-04-16T16:27:08.981Z,100411.22
2023-04-16T16:29:10.543Z,100409.28
2023-04-16T16:31:12.470Z,100415.03
2023-04-16T16:33:14.403Z,100416.88
2023-04-16T16:35:15.918Z,100410.19
2023-04-16T16:37:17.386Z,100416.97
2023-04-16T16:39:22.275Z,100408.72
2023-04-16T16:41:23.688Z,100410.63
2023-04-16T16:43:25.152Z,100416.28
2023-04-16T16:45:27.111Z,100414.22
2023-04-16T16:47:28.596Z,100411.72
2023-04-16T16:49:30.167Z,100422.72
2023-04-16T16:51:33.545Z,100419.50
2023-04-16T16:53:34.912Z,100422.03
2023-04-16T16:55:36.417Z,100422.84
2023-04-16T16:57:39.066Z,100417.00
2023-04-16T16:59:40.470Z,100418.47
2023-04-16T17:01:41.856Z,100418.75
2023-04-16T17:03:44.246Z,100424.88
2023-04-16T17:05:45.893Z,100430.16
2023-04-16T17:07:47.382Z,100419.09
2023-04-16T17:09:48.863Z,100424.03
2023-04-16T17:11:50.320Z,100423.53
2023-04-16T17:13:51.882Z,100420.94
2023-04-16T17:15:53.257Z,100422.84
2023-04-16T17:17:54.720Z,100423.47
2023-04-16T17:19:56.221Z,100423.03
2023-04-16T17:21:57.601Z,100422.66
2023-04-16T17:23:59.151Z,100417.56
2023-04-16T17:26:00.656Z,100424.09
2023-04-16T17:28:02.739Z,100424.53
2023-04-16T17:30:05.679Z,100416.22
2023-04-16T17:32:07.237Z,100423.34
2023-04-16T17:34:08.843Z,100421.72
2023-04-16T17:36:10.570Z,100417.88
2023-04-16T17:38:11.974Z,100431.56
2023-04-16T17:40:15.458Z,100432.81
2023-04-16T17:42:17.392Z,100432.63
2023-04-16T17:44:18.925Z,100435.94
2023-04-16T17:46:20.456Z,100435.31
2023-04-16T17:48:22.036Z,100435.75
2023-04-16T17:50:23.461Z,100438.63
2023-04-16T17:52:24.902Z,100449.06
2023-04-16T17:54:26.572Z,100445.22
2023-04-16T17:56:27.997Z,100438.91
2023-04-16T17:58:32.796Z,100441.16
2023-04-16T18:00:34.222Z,100447.91
2023-04-16T18:02:35.788Z,100445.88
2023-04-16T18:04:37.445Z,100447.94
2023-04-16T18:06:38.958Z,100447.34
2023-04-16T18:08:40.361Z,100449.16
2023-04-16T18:13:08.349Z,100448.19
2023-04-16T18:15:10.434Z,100450.06
2023-04-16T18:17:12.913Z,100448.03
2023-04-16T18:19:17.119Z,100453.75
2023-04-16T18:21:18.535Z,100457.22
2023-04-16T18:23:19.921Z,100455.22
2023-04-16T18:25:32.305Z,100454.00
2023-04-16T18:27:36.210Z,100458.69
2023-04-16T18:29:39.867Z,100460.72
2023-04-16T18:33:56.589Z,100463.19
2023-04-16T18:36:01.762Z,100467.69
2023-04-16T18:38:03.181Z,100466.03
2023-04-16T18:40:05.725Z,100462.41
2023-04-16T18:42:07.796Z,100469.53
2023-04-16T18:44:10.875Z,100463.66
2023-04-16T18:48:37.893Z,100473.81
2023-04-16T18:50:39.279Z,100470.56
2023-04-16T18:52:41.072Z,100469.16
2023-04-16T18:54:43.484Z,100476.69
2023-04-16T18:56:45.018Z,100479.13
2023-04-16T18:58:47.559Z,100480.16
2023-04-16T19:00:58.338Z,100483.00
2023-04-16T19:03:00.006Z,100478.13
2023-04-16T19:05:01.727Z,100476.50
2023-04-16T19:07:03.639Z,100480.38
2023-04-16T19:09:05.047Z,100483.44
2023-04-16T19:11:06.520Z,100484.03
2023-04-16T19:13:07.964Z,100485.84
2023-04-16T19:15:09.736Z,100493.19
2023-04-16T19:17:12.237Z,100484.44
2023-04-16T19:19:13.930Z,100485.25
2023-04-16T19:21:15.486Z,100486.47
2023-04-16T19:23:16.963Z,100485.88
2023-04-16T19:25:18.435Z,100486.88
